Terminal Aerodrome Forecast
Issued by NWS Jackson, MS

Home | Current Version | Previous Version | Text Only | Print | Product List | Glossary On
Versions: 1 2 3 4 5 6 7 8 9 10 11 12 13 14
000
FTUS44 KJAN 011722
TAFGLH
TAF
KGLH 011722Z 0118/0218 VRB05KT P6SM VCSH SCT050 BKN110
     FM021000 VRB03KT 4SM BR SCT250
     FM021330 33003KT P6SM SCT050=

USA.gov is the U.S. government's official web portal to all federal, state and local government web resources and services.